Grigoriy Morozov — EMAD — position and weather

sailwx.info

Track history (hours):
 
Tides and Currents Weather Stations Pressure Air Temp Water Temp Dewpoint Dewpoint Depression Visibility Wind Speed Wind Dir Waves Ship Positions

Grigoriy Morozov

Last reported at 2018-Mar-22 23:22 UTC. Time now 2018-Apr-24 23:06 UTC.
Position N 44°16' E 028°06'.
Warning: this ship's position is 32 days out of date.

Length 171 m; draft 2 m.

Type: Ship. MMSI: 272039800.

Date/timePositionNaut miles runAvg speedWind from/ knotsBaromVisibWave heightAir tempDewpointWater temp
2018-Mar-22 23:22N 44°16' E 028°06'2 6.1
2018-Mar-22 22:59N 44°16' E 028°09'3 6.0
2018-Mar-22 22:30N 44°15' E 028°13'3 6.0
2018-Mar-22 22:00N 44°15' E 028°17'3 5.8
2018-Mar-22 21:29N 44°15' E 028°21'4 5.8
2018-Mar-22 20:53N 44°12' E 028°24'5 4.8
2018-Mar-22 19:49N 44°07' E 028°27'3 5.5
2018-Mar-22 19:15N 44°06' E 028°31'2 6.0
2018-Mar-22 18:59N 44°06' E 028°33'3 6.1
2018-Mar-22 18:30N 44°06' E 028°37'0 0.4
2018-Mar-22 18:00N 44°06' E 028°37'2 3.3
2018-Mar-22 17:30N 44°07' E 028°39'0 0.4
2018-Mar-22 17:00N 44°07' E 028°39'0 0.0
2018-Mar-22 16:30N 44°07' E 028°39'0 0.0
2018-Mar-22 16:00N 44°07' E 028°39'1 2.1
2018-Mar-22 15:30N 44°06' E 028°39'0 0.0
2018-Mar-22 15:00N 44°06' E 028°39'0 0.0
2018-Mar-22 14:30N 44°06' E 028°39'0 0.0
2018-Mar-22 14:00N 44°06' E 028°39'0 0.0
2018-Mar-22 13:30N 44°06' E 028°39'0 0.0
2018-Mar-22 13:00N 44°06' E 028°39'0 0.0
2018-Mar-22 12:30N 44°06' E 028°39'0 0.0
2018-Mar-22 12:00N 44°06' E 028°39'0 0.0
2018-Mar-22 11:30N 44°06' E 028°39'0 0.0
2018-Mar-22 11:00N 44°06' E 028°39'0 0.0
2018-Mar-22 10:27N 44°06' E 028°39'0 0.0
2018-Mar-22 10:00N 44°06' E 028°39'0 0.4
2018-Mar-22 09:30N 44°06' E 028°39'  
2018-Mar-19 08:48N 44°07' E 028°39'0 0.0
2018-Mar-19 08:30N 44°07' E 028°39'0 0.0
2018-Mar-19 08:00N 44°07' E 028°39'0 0.0
2018-Mar-19 07:30N 44°07' E 028°39'0 0.0
2018-Mar-19 07:00N 44°07' E 028°39'0 0.0
2018-Mar-19 06:30N 44°07' E 028°39'0 0.0
2018-Mar-19 06:00N 44°07' E 028°39'0 0.0
2018-Mar-19 05:30N 44°07' E 028°39'0 0.0
2018-Mar-19 05:00N 44°07' E 028°39'0 0.0
2018-Mar-19 04:30N 44°07' E 028°39'0 0.0
2018-Mar-19 04:00N 44°07' E 028°39'0 0.0
2018-Mar-19 03:30N 44°07' E 028°39'0 0.0
2018-Mar-19 03:00N 44°07' E 028°39'0 0.0
2018-Mar-19 02:30N 44°07' E 028°39'0 0.0
2018-Mar-19 02:00N 44°07' E 028°39'0 0.0
2018-Mar-19 01:30N 44°07' E 028°39'0 0.0
2018-Mar-19 01:00N 44°07' E 028°39'0 0.0
2018-Mar-19 00:30N 44°07' E 028°39'0 0.0
2018-Mar-19 00:00N 44°07' E 028°39'0 0.0
2018-Mar-18 23:30N 44°07' E 028°39'0 0.0
2018-Mar-18 23:00N 44°07' E 028°39'0 0.0
2018-Mar-18 22:30N 44°07' E 028°39'0 0.0
2018-Mar-18 22:00N 44°07' E 028°39'0 0.0
2018-Mar-18 21:27N 44°07' E 028°39'0 0.0
2018-Mar-18 21:00N 44°07' E 028°39'0 0.0
2018-Mar-18 20:30N 44°07' E 028°39'0 0.0
2018-Mar-18 20:00N 44°07' E 028°39'0 0.0
2018-Mar-18 19:27N 44°07' E 028°39'0 0.0
2018-Mar-18 19:00N 44°07' E 028°39'0 0.0
2018-Mar-18 18:30N 44°07' E 028°39'0 0.0
2018-Mar-18 18:00N 44°07' E 028°39'0 0.0
2018-Mar-18 17:30N 44°07' E 028°39'0 0.0
2018-Mar-18 17:00N 44°07' E 028°39'0 0.0
2018-Mar-18 16:30N 44°07' E 028°39'0 0.0
2018-Mar-18 16:00N 44°07' E 028°39'0 0.0
2018-Mar-18 15:30N 44°07' E 028°39'0 0.0
2018-Mar-18 15:00N 44°07' E 028°39'0 0.0
2018-Mar-18 14:30N 44°07' E 028°39'0 0.0
2018-Mar-18 14:00N 44°07' E 028°39'0 0.0
2018-Mar-18 13:30N 44°07' E 028°39'0 0.0
2018-Mar-18 13:00N 44°07' E 028°39'0 0.0
2018-Mar-18 12:21N 44°07' E 028°39'0 0.0
2018-Mar-18 12:00N 44°07' E 028°39'0 0.0
2018-Mar-18 11:30N 44°07' E 028°39'0 0.0
2018-Mar-18 10:57N 44°07' E 028°39'0 0.0
2018-Mar-18 10:30N 44°07' E 028°39'0 0.0
2018-Mar-18 09:51N 44°07' E 028°39'0 0.0
2018-Mar-18 09:30N 44°07' E 028°39'0 0.0
2018-Mar-18 09:00N 44°07' E 028°39'0 0.0
2018-Mar-18 08:30N 44°07' E 028°39'0 0.0
2018-Mar-18 08:00N 44°07' E 028°39'0 0.0
2018-Mar-18 07:30N 44°07' E 028°39'0 0.0
2018-Mar-18 07:00N 44°07' E 028°39'0 0.0
2018-Mar-18 06:27N 44°07' E 028°39'0 0.0
2018-Mar-18 05:57N 44°07' E 028°39'0 0.0
2018-Mar-18 05:30N 44°07' E 028°39'0 0.0
2018-Mar-18 05:00N 44°07' E 028°39'0 0.0
2018-Mar-18 04:30N 44°07' E 028°39'0 0.0
2018-Mar-18 04:00N 44°07' E 028°39'0 0.0
2018-Mar-18 03:27N 44°07' E 028°39'0 0.0
2018-Mar-18 03:00N 44°07' E 028°39'0 0.0
2018-Mar-18 02:30N 44°07' E 028°39'0 0.0
2018-Mar-18 02:00N 44°07' E 028°39'0 0.0
2018-Mar-18 01:27N 44°07' E 028°39'0 0.0
2018-Mar-18 01:00N 44°07' E 028°39'0 0.0
2018-Mar-18 00:30N 44°07' E 028°39'0 0.0
2018-Mar-17 23:57N 44°07' E 028°39'0 0.0
2018-Mar-17 23:30N 44°07' E 028°39'0 0.0
2018-Mar-17 23:00N 44°07' E 028°39'0 0.0
2018-Mar-17 22:30N 44°07' E 028°39'0 0.0
2018-Mar-17 21:57N 44°07' E 028°39'0 0.0
2018-Mar-17 21:30N 44°07' E 028°39'0 0.0
2018-Mar-17 21:00N 44°07' E 028°39'0 0.0
2018-Mar-17 20:30N 44°07' E 028°39'0 0.0
2018-Mar-17 20:00N 44°07' E 028°39'0 0.0
2018-Mar-17 19:30N 44°07' E 028°39'0 0.0
2018-Mar-17 19:00N 44°07' E 028°39'0 0.0
2018-Mar-17 18:30N 44°07' E 028°39'0 0.0
2018-Mar-17 18:00N 44°07' E 028°39'0 0.0
2018-Mar-17 17:30N 44°07' E 028°39'0 0.0
2018-Mar-17 17:00N 44°07' E 028°39'0 0.0
2018-Mar-17 16:30N 44°07' E 028°39'0 0.0
2018-Mar-17 16:00N 44°07' E 028°39'0 0.0
2018-Mar-17 15:30N 44°07' E 028°39'0 0.0
2018-Mar-17 15:00N 44°07' E 028°39'0 0.0
2018-Mar-17 14:30N 44°07' E 028°39'0 0.0
2018-Mar-17 14:00N 44°07' E 028°39'0 0.0
2018-Mar-17 13:24N 44°07' E 028°39'0 0.0
2018-Mar-17 13:00N 44°07' E 028°39'0 0.0
2018-Mar-17 12:24N 44°07' E 028°39'0 0.0
2018-Mar-17 11:57N 44°07' E 028°39'0 0.0
2018-Mar-17 11:30N 44°07' E 028°39'0 0.0
2018-Mar-17 11:00N 44°07' E 028°39'0 0.0
2018-Mar-17 10:27N 44°07' E 028°39'0 0.0
2018-Mar-17 10:00N 44°07' E 028°39'0 0.0
2018-Mar-17 09:30N 44°07' E 028°39'0 0.0
2018-Mar-17 09:00N 44°07' E 028°39'0 0.0
2018-Mar-17 08:30N 44°07' E 028°39'0 0.0
2018-Mar-17 08:00N 44°07' E 028°39'0 0.0
2018-Mar-17 07:30N 44°07' E 028°39'0 0.0
2018-Mar-17 07:00N 44°07' E 028°39'0 0.0
2018-Mar-17 06:27N 44°07' E 028°39'0 0.0
2018-Mar-17 06:00N 44°07' E 028°39'0 0.0
2018-Mar-17 05:24N 44°07' E 028°39'0 0.0
2018-Mar-17 05:00N 44°07' E 028°39'0 0.0
2018-Mar-17 04:27N 44°07' E 028°39'0 0.0
2018-Mar-17 04:00N 44°07' E 028°39'0 0.0
2018-Mar-17 03:30N 44°07' E 028°39'0 0.0
2018-Mar-17 03:00N 44°07' E 028°39'0 0.0
2018-Mar-17 02:27N 44°07' E 028°39'0 0.0
2018-Mar-17 02:00N 44°07' E 028°39'0 0.0
2018-Mar-17 01:30N 44°07' E 028°39'0 0.0
2018-Mar-17 01:00N 44°07' E 028°39'0 0.0
2018-Mar-17 00:30N 44°07' E 028°39'0 0.0
2018-Mar-17 00:00N 44°07' E 028°39'0 0.0
2018-Mar-16 23:30N 44°07' E 028°39'0 0.0
2018-Mar-16 23:00N 44°07' E 028°39'0 0.0
2018-Mar-16 22:27N 44°07' E 028°39'0 0.0
2018-Mar-16 22:00N 44°07' E 028°39'0 0.0
2018-Mar-16 21:30N 44°07' E 028°39'0 0.0
2018-Mar-16 21:00N 44°07' E 028°39'0 0.0
2018-Mar-16 20:24N 44°07' E 028°39'0 0.0
2018-Mar-16 19:57N 44°07' E 028°39'0 0.0
2018-Mar-16 19:30N 44°07' E 028°39'0 0.0
2018-Mar-16 19:00N 44°07' E 028°39'0 0.0
2018-Mar-16 18:30N 44°07' E 028°39'0 0.0
2018-Mar-16 18:00N 44°07' E 028°39'0 0.0
2018-Mar-16 17:30N 44°07' E 028°39'0 0.0
2018-Mar-16 17:00N 44°07' E 028°39'0 0.0
2018-Mar-16 16:30N 44°07' E 028°39'0 0.0
2018-Mar-16 16:00N 44°07' E 028°39'0 0.0
2018-Mar-16 15:30N 44°07' E 028°39'0 0.0
2018-Mar-16 15:00N 44°07' E 028°39'0 0.0
2018-Mar-16 14:30N 44°07' E 028°39'0 0.0
2018-Mar-16 14:00N 44°07' E 028°39'0 0.0
2018-Mar-16 13:30N 44°07' E 028°39'0 0.0
2018-Mar-16 13:00N 44°07' E 028°39'0 0.0
2018-Mar-16 12:30N 44°07' E 028°39'0 0.0
2018-Mar-16 12:00N 44°07' E 028°39'0 0.0
2018-Mar-16 11:30N 44°07' E 028°39'0 0.0
2018-Mar-16 11:00N 44°07' E 028°39'0 0.0
2018-Mar-16 10:30N 44°07' E 028°39'0 0.0
2018-Mar-16 10:00N 44°07' E 028°39'0 0.0
2018-Mar-16 09:24N 44°07' E 028°39'0 0.0
2018-Mar-16 09:00N 44°07' E 028°39'0 0.0
2018-Mar-16 08:30N 44°07' E 028°39'0 0.0
2018-Mar-16 08:00N 44°07' E 028°39'0 0.0
2018-Mar-16 07:30N 44°07' E 028°39'0 0.0
2018-Mar-16 07:00N 44°07' E 028°39'0 0.0
2018-Mar-16 06:30N 44°07' E 028°39'0 0.0
2018-Mar-16 06:00N 44°07' E 028°39'0 0.0
2018-Mar-16 05:30N 44°07' E 028°39'0 0.0
2018-Mar-16 05:00N 44°07' E 028°39'0 0.0
2018-Mar-16 04:27N 44°07' E 028°39'0 0.0
2018-Mar-16 04:00N 44°07' E 028°39'0 0.0
2018-Mar-16 03:30N 44°07' E 028°39'0 0.0
2018-Mar-16 03:00N 44°07' E 028°39'0 0.0
2018-Mar-16 02:30N 44°07' E 028°39'0 0.0
2018-Mar-16 02:00N 44°07' E 028°39'0 0.0
2018-Mar-16 01:30N 44°07' E 028°39'0 0.0
2018-Mar-16 01:00N 44°07' E 028°39'0 0.0
2018-Mar-16 00:30N 44°07' E 028°39'0 0.0
2018-Mar-16 00:00N 44°07' E 028°39'0 0.0
2018-Mar-15 23:30N 44°07' E 028°39'0 0.0
2018-Mar-15 23:00N 44°07' E 028°39'0 0.0
2018-Mar-15 22:30N 44°07' E 028°39'0 0.0
2018-Mar-15 22:00N 44°07' E 028°39'0 0.0
2018-Mar-15 21:30N 44°07' E 028°39'0 0.0
2018-Mar-15 21:00N 44°07' E 028°39'0 0.0
2018-Mar-15 20:30N 44°07' E 028°39'0 0.0
2018-Mar-15 19:57N 44°07' E 028°39'0 0.0
2018-Mar-15 19:30N 44°07' E 028°39'0 0.0
2018-Mar-15 19:00N 44°07' E 028°39'0 0.0
2018-Mar-15 18:30N 44°07' E 028°39'0 0.0
2018-Mar-15 18:00N 44°07' E 028°39'0 0.0
2018-Mar-15 17:30N 44°07' E 028°39'0 0.0
2018-Mar-15 17:00N 44°07' E 028°39'0 0.0
2018-Mar-15 16:30N 44°07' E 028°39'0 0.0
2018-Mar-15 16:00N 44°07' E 028°39'0 0.0
2018-Mar-15 15:27N 44°07' E 028°39'0 0.0
2018-Mar-15 15:00N 44°07' E 028°39'0 0.0
2018-Mar-15 14:30N 44°07' E 028°39'0 0.0
2018-Mar-15 14:00N 44°07' E 028°39'0 0.0
2018-Mar-15 13:30N 44°07' E 028°39'0 0.1
2018-Mar-15 13:00N 44°07' E 028°39'0 0.0
2018-Mar-15 12:30N 44°07' E 028°39'0 0.0
2018-Mar-15 12:00N 44°07' E 028°39'0 0.0
2018-Mar-15 11:24N 44°07' E 028°39'0 0.0
2018-Mar-15 11:00N 44°07' E 028°39'0 0.0
2018-Mar-15 10:29N 44°07' E 028°39'0 0.0
2018-Mar-15 09:59N 44°07' E 028°39'0 0.0
2018-Mar-15 09:30N 44°07' E 028°39'0 0.0
2018-Mar-15 09:00N 44°07' E 028°39'0 0.0
2018-Mar-15 08:26N 44°07' E 028°39'0 0.0
2018-Mar-15 08:00N 44°07' E 028°39'0 0.0
2018-Mar-15 07:30N 44°07' E 028°39'0 0.0
2018-Mar-15 07:00N 44°07' E 028°39'0 0.0
2018-Mar-15 06:30N 44°07' E 028°39'0 0.0
2018-Mar-15 06:00N 44°07' E 028°39'0 0.0
2018-Mar-15 05:30N 44°07' E 028°39'0 0.0
2018-Mar-15 05:00N 44°07' E 028°39'0 0.0
2018-Mar-15 04:30N 44°07' E 028°39'0 0.0
2018-Mar-15 04:00N 44°07' E 028°39'0 0.0
2018-Mar-15 03:26N 44°07' E 028°39'0 0.0
2018-Mar-15 02:57N 44°07' E 028°39'0 0.0
2018-Mar-15 02:21N 44°07' E 028°39'0 0.0
2018-Mar-15 01:57N 44°07' E 028°39'0 0.0
2018-Mar-15 01:30N 44°07' E 028°39'0 0.0
2018-Mar-15 00:54N 44°07' E 028°39'0 0.0
2018-Mar-15 00:30N 44°07' E 028°39'0 0.0
2018-Mar-14 23:57N 44°07' E 028°39'0 0.0
2018-Mar-14 23:30N 44°07' E 028°39'0 0.0
2018-Mar-14 23:00N 44°07' E 028°39'0 0.0
2018-Mar-14 22:30N 44°07' E 028°39'0 0.0
2018-Mar-14 22:00N 44°07' E 028°39'1 1.3
2018-Mar-14 21:30N 44°07' E 028°39'1 2.1
2018-Mar-14 21:00N 44°06' E 028°39'1 2.5
2018-Mar-14 20:29N 44°06' E 028°37'0 0.8
2018-Mar-14 20:00N 44°06' E 028°37'2 4.9
2018-Mar-14 19:30N 44°06' E 028°33'6 4.3
2018-Mar-14 18:04N 44°09' E 028°26'1 5.2
2018-Mar-14 17:52N 44°10' E 028°25'2 5.0
2018-Mar-14 17:31N 44°11' E 028°24'3 5.2
2018-Mar-14 17:01N 44°14' E 028°22'3 4.9
2018-Mar-14 16:29N 44°15' E 028°19'3 5.3
2018-Mar-14 15:58N 44°15' E 028°15'2 5.3
2018-Mar-14 15:30N 44°16' E 028°12'3 5.2
2018-Mar-14 15:00N 44°16' E 028°08'  
Track history (hours):
 
Tides and Currents Weather Stations Pressure Air Temp Water Temp Dewpoint Dewpoint Depression Visibility Wind Speed Wind Dir Waves Ship Positions

Grigoriy Morozov

Last reported at 2018-Mar-22 23:22 UTC. Time now 2018-Apr-24 23:06 UTC.
Position N 44°16' E 028°06'.
Warning: this ship's position is 32 days out of date.

Length 171 m; draft 2 m.

Type: Ship. MMSI: 272039800.

Date/timePositionNaut miles runAvg speedWind from/ knotsBaromVisibWave heightAir tempDewpointWater temp
2018-Mar-22 23:22N 44°16' E 028°06'2 6.1
2018-Mar-22 22:59N 44°16' E 028°09'3 6.0
2018-Mar-22 22:30N 44°15' E 028°13'3 6.0
2018-Mar-22 22:00N 44°15' E 028°17'3 5.8
2018-Mar-22 21:29N 44°15' E 028°21'4 5.8
2018-Mar-22 20:53N 44°12' E 028°24'5 4.8
2018-Mar-22 19:49N 44°07' E 028°27'3 5.5
2018-Mar-22 19:15N 44°06' E 028°31'2 6.0
2018-Mar-22 18:59N 44°06' E 028°33'3 6.1
2018-Mar-22 18:30N 44°06' E 028°37'0 0.4
2018-Mar-22 18:00N 44°06' E 028°37'2 3.3
2018-Mar-22 17:30N 44°07' E 028°39'0 0.4
2018-Mar-22 17:00N 44°07' E 028°39'0 0.0
2018-Mar-22 16:30N 44°07' E 028°39'0 0.0
2018-Mar-22 16:00N 44°07' E 028°39'1 2.1
2018-Mar-22 15:30N 44°06' E 028°39'0 0.0
2018-Mar-22 15:00N 44°06' E 028°39'0 0.0
2018-Mar-22 14:30N 44°06' E 028°39'0 0.0
2018-Mar-22 14:00N 44°06' E 028°39'0 0.0
2018-Mar-22 13:30N 44°06' E 028°39'0 0.0
2018-Mar-22 13:00N 44°06' E 028°39'0 0.0
2018-Mar-22 12:30N 44°06' E 028°39'0 0.0
2018-Mar-22 12:00N 44°06' E 028°39'0 0.0
2018-Mar-22 11:30N 44°06' E 028°39'0 0.0
2018-Mar-22 11:00N 44°06' E 028°39'0 0.0
2018-Mar-22 10:27N 44°06' E 028°39'0 0.0
2018-Mar-22 10:00N 44°06' E 028°39'0 0.4
2018-Mar-22 09:30N 44°06' E 028°39'  
2018-Mar-19 08:48N 44°07' E 028°39'0 0.0
2018-Mar-19 08:30N 44°07' E 028°39'0 0.0
2018-Mar-19 08:00N 44°07' E 028°39'0 0.0
2018-Mar-19 07:30N 44°07' E 028°39'0 0.0
2018-Mar-19 07:00N 44°07' E 028°39'0 0.0
2018-Mar-19 06:30N 44°07' E 028°39'0 0.0
2018-Mar-19 06:00N 44°07' E 028°39'0 0.0
2018-Mar-19 05:30N 44°07' E 028°39'0 0.0
2018-Mar-19 05:00N 44°07' E 028°39'0 0.0
2018-Mar-19 04:30N 44°07' E 028°39'0 0.0
2018-Mar-19 04:00N 44°07' E 028°39'0 0.0
2018-Mar-19 03:30N 44°07' E 028°39'0 0.0
2018-Mar-19 03:00N 44°07' E 028°39'0 0.0
2018-Mar-19 02:30N 44°07' E 028°39'0 0.0
2018-Mar-19 02:00N 44°07' E 028°39'0 0.0
2018-Mar-19 01:30N 44°07' E 028°39'0 0.0
2018-Mar-19 01:00N 44°07' E 028°39'0 0.0
2018-Mar-19 00:30N 44°07' E 028°39'0 0.0
2018-Mar-19 00:00N 44°07' E 028°39'0 0.0
2018-Mar-18 23:30N 44°07' E 028°39'0 0.0
2018-Mar-18 23:00N 44°07' E 028°39'0 0.0
2018-Mar-18 22:30N 44°07' E 028°39'0 0.0
2018-Mar-18 22:00N 44°07' E 028°39'0 0.0
2018-Mar-18 21:27N 44°07' E 028°39'0 0.0
2018-Mar-18 21:00N 44°07' E 028°39'0 0.0
2018-Mar-18 20:30N 44°07' E 028°39'0 0.0
2018-Mar-18 20:00N 44°07' E 028°39'0 0.0
2018-Mar-18 19:27N 44°07' E 028°39'0 0.0
2018-Mar-18 19:00N 44°07' E 028°39'0 0.0
2018-Mar-18 18:30N 44°07' E 028°39'0 0.0
2018-Mar-18 18:00N 44°07' E 028°39'0 0.0
2018-Mar-18 17:30N 44°07' E 028°39'0 0.0
2018-Mar-18 17:00N 44°07' E 028°39'0 0.0
2018-Mar-18 16:30N 44°07' E 028°39'0 0.0
2018-Mar-18 16:00N 44°07' E 028°39'0 0.0
2018-Mar-18 15:30N 44°07' E 028°39'0 0.0
2018-Mar-18 15:00N 44°07' E 028°39'0 0.0
2018-Mar-18 14:30N 44°07' E 028°39'0 0.0
2018-Mar-18 14:00N 44°07' E 028°39'0 0.0
2018-Mar-18 13:30N 44°07' E 028°39'0 0.0
2018-Mar-18 13:00N 44°07' E 028°39'0 0.0
2018-Mar-18 12:21N 44°07' E 028°39'0 0.0
2018-Mar-18 12:00N 44°07' E 028°39'0 0.0
2018-Mar-18 11:30N 44°07' E 028°39'0 0.0
2018-Mar-18 10:57N 44°07' E 028°39'0 0.0
2018-Mar-18 10:30N 44°07' E 028°39'0 0.0
2018-Mar-18 09:51N 44°07' E 028°39'0 0.0
2018-Mar-18 09:30N 44°07' E 028°39'0 0.0
2018-Mar-18 09:00N 44°07' E 028°39'0 0.0
2018-Mar-18 08:30N 44°07' E 028°39'0 0.0
2018-Mar-18 08:00N 44°07' E 028°39'0 0.0
2018-Mar-18 07:30N 44°07' E 028°39'0 0.0
2018-Mar-18 07:00N 44°07' E 028°39'0 0.0
2018-Mar-18 06:27N 44°07' E 028°39'0 0.0
2018-Mar-18 05:57N 44°07' E 028°39'0 0.0
2018-Mar-18 05:30N 44°07' E 028°39'0 0.0
2018-Mar-18 05:00N 44°07' E 028°39'0 0.0
2018-Mar-18 04:30N 44°07' E 028°39'0 0.0
2018-Mar-18 04:00N 44°07' E 028°39'0 0.0
2018-Mar-18 03:27N 44°07' E 028°39'0 0.0
2018-Mar-18 03:00N 44°07' E 028°39'0 0.0
2018-Mar-18 02:30N 44°07' E 028°39'0 0.0
2018-Mar-18 02:00N 44°07' E 028°39'0 0.0
2018-Mar-18 01:27N 44°07' E 028°39'0 0.0
2018-Mar-18 01:00N 44°07' E 028°39'0 0.0
2018-Mar-18 00:30N 44°07' E 028°39'0 0.0
2018-Mar-17 23:57N 44°07' E 028°39'0 0.0
2018-Mar-17 23:30N 44°07' E 028°39'0 0.0
2018-Mar-17 23:00N 44°07' E 028°39'0 0.0
2018-Mar-17 22:30N 44°07' E 028°39'0 0.0
2018-Mar-17 21:57N 44°07' E 028°39'0 0.0
2018-Mar-17 21:30N 44°07' E 028°39'0 0.0
2018-Mar-17 21:00N 44°07' E 028°39'0 0.0
2018-Mar-17 20:30N 44°07' E 028°39'0 0.0
2018-Mar-17 20:00N 44°07' E 028°39'0 0.0
2018-Mar-17 19:30N 44°07' E 028°39'0 0.0
2018-Mar-17 19:00N 44°07' E 028°39'0 0.0
2018-Mar-17 18:30N 44°07' E 028°39'0 0.0
2018-Mar-17 18:00N 44°07' E 028°39'0 0.0
2018-Mar-17 17:30N 44°07' E 028°39'0 0.0
2018-Mar-17 17:00N 44°07' E 028°39'0 0.0
2018-Mar-17 16:30N 44°07' E 028°39'0 0.0
2018-Mar-17 16:00N 44°07' E 028°39'0 0.0
2018-Mar-17 15:30N 44°07' E 028°39'0 0.0
2018-Mar-17 15:00N 44°07' E 028°39'0 0.0
2018-Mar-17 14:30N 44°07' E 028°39'0 0.0
2018-Mar-17 14:00N 44°07' E 028°39'0 0.0
2018-Mar-17 13:24N 44°07' E 028°39'0 0.0
2018-Mar-17 13:00N 44°07' E 028°39'0 0.0
2018-Mar-17 12:24N 44°07' E 028°39'0 0.0
2018-Mar-17 11:57N 44°07' E 028°39'0 0.0
2018-Mar-17 11:30N 44°07' E 028°39'0 0.0
2018-Mar-17 11:00N 44°07' E 028°39'0 0.0
2018-Mar-17 10:27N 44°07' E 028°39'0 0.0
2018-Mar-17 10:00N 44°07' E 028°39'0 0.0
2018-Mar-17 09:30N 44°07' E 028°39'0 0.0
2018-Mar-17 09:00N 44°07' E 028°39'0 0.0
2018-Mar-17 08:30N 44°07' E 028°39'0 0.0
2018-Mar-17 08:00N 44°07' E 028°39'0 0.0
2018-Mar-17 07:30N 44°07' E 028°39'0 0.0
2018-Mar-17 07:00N 44°07' E 028°39'0 0.0
2018-Mar-17 06:27N 44°07' E 028°39'0 0.0
2018-Mar-17 06:00N 44°07' E 028°39'0 0.0
2018-Mar-17 05:24N 44°07' E 028°39'0 0.0
2018-Mar-17 05:00N 44°07' E 028°39'0 0.0
2018-Mar-17 04:27N 44°07' E 028°39'0 0.0
2018-Mar-17 04:00N 44°07' E 028°39'0 0.0
2018-Mar-17 03:30N 44°07' E 028°39'0 0.0
2018-Mar-17 03:00N 44°07' E 028°39'0 0.0
2018-Mar-17 02:27N 44°07' E 028°39'0 0.0
2018-Mar-17 02:00N 44°07' E 028°39'0 0.0
2018-Mar-17 01:30N 44°07' E 028°39'0 0.0
2018-Mar-17 01:00N 44°07' E 028°39'0 0.0
2018-Mar-17 00:30N 44°07' E 028°39'0 0.0
2018-Mar-17 00:00N 44°07' E 028°39'0 0.0
2018-Mar-16 23:30N 44°07' E 028°39'0 0.0
2018-Mar-16 23:00N 44°07' E 028°39'0 0.0
2018-Mar-16 22:27N 44°07' E 028°39'0 0.0
2018-Mar-16 22:00N 44°07' E 028°39'0 0.0
2018-Mar-16 21:30N 44°07' E 028°39'0 0.0
2018-Mar-16 21:00N 44°07' E 028°39'0 0.0
2018-Mar-16 20:24N 44°07' E 028°39'0 0.0
2018-Mar-16 19:57N 44°07' E 028°39'0 0.0
2018-Mar-16 19:30N 44°07' E 028°39'0 0.0
2018-Mar-16 19:00N 44°07' E 028°39'0 0.0
2018-Mar-16 18:30N 44°07' E 028°39'0 0.0
2018-Mar-16 18:00N 44°07' E 028°39'0 0.0
2018-Mar-16 17:30N 44°07' E 028°39'0 0.0
2018-Mar-16 17:00N 44°07' E 028°39'0 0.0
2018-Mar-16 16:30N 44°07' E 028°39'0 0.0
2018-Mar-16 16:00N 44°07' E 028°39'0 0.0
2018-Mar-16 15:30N 44°07' E 028°39'0 0.0
2018-Mar-16 15:00N 44°07' E 028°39'0 0.0
2018-Mar-16 14:30N 44°07' E 028°39'0 0.0
2018-Mar-16 14:00N 44°07' E 028°39'0 0.0
2018-Mar-16 13:30N 44°07' E 028°39'0 0.0
2018-Mar-16 13:00N 44°07' E 028°39'0 0.0
2018-Mar-16 12:30N 44°07' E 028°39'0 0.0
2018-Mar-16 12:00N 44°07' E 028°39'0 0.0
2018-Mar-16 11:30N 44°07' E 028°39'0 0.0
2018-Mar-16 11:00N 44°07' E 028°39'0 0.0
2018-Mar-16 10:30N 44°07' E 028°39'0 0.0
2018-Mar-16 10:00N 44°07' E 028°39'0 0.0
2018-Mar-16 09:24N 44°07' E 028°39'0 0.0
2018-Mar-16 09:00N 44°07' E 028°39'0 0.0
2018-Mar-16 08:30N 44°07' E 028°39'0 0.0
2018-Mar-16 08:00N 44°07' E 028°39'0 0.0
2018-Mar-16 07:30N 44°07' E 028°39'0 0.0
2018-Mar-16 07:00N 44°07' E 028°39'0 0.0
2018-Mar-16 06:30N 44°07' E 028°39'0 0.0
2018-Mar-16 06:00N 44°07' E 028°39'0 0.0
2018-Mar-16 05:30N 44°07' E 028°39'0 0.0
2018-Mar-16 05:00N 44°07' E 028°39'0 0.0
2018-Mar-16 04:27N 44°07' E 028°39'0 0.0
2018-Mar-16 04:00N 44°07' E 028°39'0 0.0
2018-Mar-16 03:30N 44°07' E 028°39'0 0.0
2018-Mar-16 03:00N 44°07' E 028°39'0 0.0
2018-Mar-16 02:30N 44°07' E 028°39'0 0.0
2018-Mar-16 02:00N 44°07' E 028°39'0 0.0
2018-Mar-16 01:30N 44°07' E 028°39'0 0.0
2018-Mar-16 01:00N 44°07' E 028°39'0 0.0
2018-Mar-16 00:30N 44°07' E 028°39'0 0.0
2018-Mar-16 00:00N 44°07' E 028°39'0 0.0
2018-Mar-15 23:30N 44°07' E 028°39'0 0.0
2018-Mar-15 23:00N 44°07' E 028°39'0 0.0
2018-Mar-15 22:30N 44°07' E 028°39'0 0.0
2018-Mar-15 22:00N 44°07' E 028°39'0 0.0
2018-Mar-15 21:30N 44°07' E 028°39'0 0.0
2018-Mar-15 21:00N 44°07' E 028°39'0 0.0
2018-Mar-15 20:30N 44°07' E 028°39'0 0.0
2018-Mar-15 19:57N 44°07' E 028°39'0 0.0
2018-Mar-15 19:30N 44°07' E 028°39'0 0.0
2018-Mar-15 19:00N 44°07' E 028°39'0 0.0
2018-Mar-15 18:30N 44°07' E 028°39'0 0.0
2018-Mar-15 18:00N 44°07' E 028°39'0 0.0
2018-Mar-15 17:30N 44°07' E 028°39'0 0.0
2018-Mar-15 17:00N 44°07' E 028°39'0 0.0
2018-Mar-15 16:30N 44°07' E 028°39'0 0.0
2018-Mar-15 16:00N 44°07' E 028°39'0 0.0
2018-Mar-15 15:27N 44°07' E 028°39'0 0.0
2018-Mar-15 15:00N 44°07' E 028°39'0 0.0
2018-Mar-15 14:30N 44°07' E 028°39'0 0.0
2018-Mar-15 14:00N 44°07' E 028°39'0 0.0
2018-Mar-15 13:30N 44°07' E 028°39'0 0.1
2018-Mar-15 13:00N 44°07' E 028°39'0 0.0
2018-Mar-15 12:30N 44°07' E 028°39'0 0.0
2018-Mar-15 12:00N 44°07' E 028°39'0 0.0
2018-Mar-15 11:24N 44°07' E 028°39'0 0.0
2018-Mar-15 11:00N 44°07' E 028°39'0 0.0
2018-Mar-15 10:29N 44°07' E 028°39'0 0.0
2018-Mar-15 09:59N 44°07' E 028°39'0 0.0
2018-Mar-15 09:30N 44°07' E 028°39'0 0.0
2018-Mar-15 09:00N 44°07' E 028°39'0 0.0
2018-Mar-15 08:26N 44°07' E 028°39'0 0.0
2018-Mar-15 08:00N 44°07' E 028°39'0 0.0
2018-Mar-15 07:30N 44°07' E 028°39'0 0.0
2018-Mar-15 07:00N 44°07' E 028°39'0 0.0
2018-Mar-15 06:30N 44°07' E 028°39'0 0.0
2018-Mar-15 06:00N 44°07' E 028°39'0 0.0
2018-Mar-15 05:30N 44°07' E 028°39'0 0.0
2018-Mar-15 05:00N 44°07' E 028°39'0 0.0
2018-Mar-15 04:30N 44°07' E 028°39'0 0.0
2018-Mar-15 04:00N 44°07' E 028°39'0 0.0
2018-Mar-15 03:26N 44°07' E 028°39'0 0.0
2018-Mar-15 02:57N 44°07' E 028°39'0 0.0
2018-Mar-15 02:21N 44°07' E 028°39'0 0.0
2018-Mar-15 01:57N 44°07' E 028°39'0 0.0
2018-Mar-15 01:30N 44°07' E 028°39'0 0.0
2018-Mar-15 00:54N 44°07' E 028°39'0 0.0
2018-Mar-15 00:30N 44°07' E 028°39'0 0.0
2018-Mar-14 23:57N 44°07' E 028°39'0 0.0
2018-Mar-14 23:30N 44°07' E 028°39'0 0.0
2018-Mar-14 23:00N 44°07' E 028°39'0 0.0
2018-Mar-14 22:30N 44°07' E 028°39'0 0.0
2018-Mar-14 22:00N 44°07' E 028°39'1 1.3
2018-Mar-14 21:30N 44°07' E 028°39'1 2.1
2018-Mar-14 21:00N 44°06' E 028°39'1 2.5
2018-Mar-14 20:29N 44°06' E 028°37'0 0.8
2018-Mar-14 20:00N 44°06' E 028°37'2 4.9
2018-Mar-14 19:30N 44°06' E 028°33'6 4.3
2018-Mar-14 18:04N 44°09' E 028°26'1 5.2
2018-Mar-14 17:52N 44°10' E 028°25'2 5.0
2018-Mar-14 17:31N 44°11' E 028°24'3 5.2
2018-Mar-14 17:01N 44°14' E 028°22'3 4.9
2018-Mar-14 16:29N 44°15' E 028°19'3 5.3
2018-Mar-14 15:58N 44°15' E 028°15'2 5.3
2018-Mar-14 15:30N 44°16' E 028°12'3 5.2
2018-Mar-14 15:00N 44°16' E 028°08'  

Dump ship's entire track history